sensor_id;sensor_type;location;lat;lon;timestamp;pressure;altitude;pressure_sealevel;temperature
29701;BMP280;57917;51.380;-0.176;2022-11-15T00:01:21;100144.34;;;11.50
29701;BMP280;57917;51.380;-0.176;2022-11-15T00:07:26;100120.88;;;11.30
29701;BMP280;57917;51.380;-0.176;2022-11-15T00:13:54;100116.63;;;11.15
29701;BMP280;57917;51.380;-0.176;2022-11-15T00:20:00;100114.06;;;11.10
29701;BMP280;57917;51.380;-0.176;2022-11-15T00:26:06;100098.56;;;11.04
29701;BMP280;57917;51.380;-0.176;2022-11-15T00:32:14;100105.72;;;11.03
29701;BMP280;57917;51.380;-0.176;2022-11-15T00:38:19;100095.78;;;10.95
29701;BMP280;57917;51.380;-0.176;2022-11-15T00:44:25;100094.34;;;11.03
29701;BMP280;57917;51.380;-0.176;2022-11-15T00:50:30;100075.38;;;10.96
29701;BMP280;57917;51.380;-0.176;2022-11-15T00:56:37;100062.97;;;10.78
29701;BMP280;57917;51.380;-0.176;2022-11-15T01:02:43;100054.72;;;10.79
29701;BMP280;57917;51.380;-0.176;2022-11-15T01:08:49;100031.56;;;10.71
29701;BMP280;57917;51.380;-0.176;2022-11-15T01:14:54;100018.47;;;10.80
29701;BMP280;57917;51.380;-0.176;2022-11-15T01:21:04;100019.63;;;10.74
29701;BMP280;57917;51.380;-0.176;2022-11-15T01:27:12;100009.75;;;10.61
29701;BMP280;57917;51.380;-0.176;2022-11-15T01:33:19;99997.25;;;10.66
29701;BMP280;57917;51.380;-0.176;2022-11-15T01:39:24;99968.56;;;10.73
29701;BMP280;57917;51.380;-0.176;2022-11-15T01:45:30;99958.25;;;10.72
29701;BMP280;57917;51.380;-0.176;2022-11-15T01:51:35;99955.22;;;10.92
29701;BMP280;57917;51.380;-0.176;2022-11-15T01:57:42;99937.31;;;10.89
29701;BMP280;57917;51.380;-0.176;2022-11-15T02:03:59;99933.06;;;10.88
29701;BMP280;57917;51.380;-0.176;2022-11-15T02:10:11;99928.09;;;10.73
29701;BMP280;57917;51.380;-0.176;2022-11-15T02:23:11;99899.63;;;10.92
29701;BMP280;57917;51.380;-0.176;2022-11-15T02:29:32;99875.22;;;10.95
29701;BMP280;57917;51.380;-0.176;2022-11-15T02:35:52;99872.09;;;10.93
29701;BMP280;57917;51.380;-0.176;2022-11-15T02:42:09;99855.53;;;10.87
29701;BMP280;57917;51.380;-0.176;2022-11-15T02:48:36;99859.72;;;10.88
29701;BMP280;57917;51.380;-0.176;2022-11-15T02:54:41;99844.34;;;11.04
29701;BMP280;57917;51.380;-0.176;2022-11-15T03:01:00;99835.91;;;11.02
29701;BMP280;57917;51.380;-0.176;2022-11-15T03:07:25;99821.31;;;11.13
29701;BMP280;57917;51.380;-0.176;2022-11-15T03:20:11;99808.38;;;11.25
29701;BMP280;57917;51.380;-0.176;2022-11-15T03:26:19;99808.38;;;11.25
29701;BMP280;57917;51.380;-0.176;2022-11-15T03:32:30;99797.31;;;11.45
29701;BMP280;57917;51.380;-0.176;2022-11-15T03:38:37;99788.09;;;11.43
29701;BMP280;57917;51.380;-0.176;2022-11-15T03:44:58;99794.53;;;11.50
29701;BMP280;57917;51.380;-0.176;2022-11-15T03:51:07;99775.88;;;11.55
29701;BMP280;57917;51.380;-0.176;2022-11-15T03:57:16;99757.22;;;11.60
29701;BMP280;57917;51.380;-0.176;2022-11-15T04:03:21;99744.84;;;11.78
29701;BMP280;57917;51.380;-0.176;2022-11-15T04:09:28;99736.69;;;11.74
29701;BMP280;57917;51.380;-0.176;2022-11-15T04:15:34;99726.41;;;11.81
29701;BMP280;57917;51.380;-0.176;2022-11-15T04:21:39;99721.59;;;11.83
29701;BMP280;57917;51.380;-0.176;2022-11-15T04:28:03;99711.59;;;12.11
29701;BMP280;57917;51.380;-0.176;2022-11-15T04:34:08;99700.88;;;12.24
29701;BMP280;57917;51.380;-0.176;2022-11-15T04:40:14;99696.81;;;12.27
29701;BMP280;57917;51.380;-0.176;2022-11-15T04:46:19;99672.00;;;12.40
29701;BMP280;57917;51.380;-0.176;2022-11-15T04:52:25;99661.41;;;12.40
29701;BMP280;57917;51.380;-0.176;2022-11-15T04:58:31;99652.66;;;12.56
29701;BMP280;57917;51.380;-0.176;2022-11-15T05:04:37;99651.72;;;12.52
29701;BMP280;57917;51.380;-0.176;2022-11-15T05:10:42;99634.75;;;12.62
29701;BMP280;57917;51.380;-0.176;2022-11-15T05:16:53;99607.22;;;12.66
29701;BMP280;57917;51.380;-0.176;2022-11-15T05:22:58;99588.63;;;12.66
29701;BMP280;57917;51.380;-0.176;2022-11-15T05:29:03;99581.13;;;12.77
29701;BMP280;57917;51.380;-0.176;2022-11-15T05:35:12;99571.47;;;12.72
29701;BMP280;57917;51.380;-0.176;2022-11-15T05:41:22;99572.06;;;12.87
29701;BMP280;57917;51.380;-0.176;2022-11-15T05:47:30;99565.03;;;12.82
29701;BMP280;57917;51.380;-0.176;2022-11-15T05:53:36;99538.63;;;12.86
29701;BMP280;57917;51.380;-0.176;2022-11-15T05:59:42;99521.50;;;12.74
29701;BMP280;57917;51.380;-0.176;2022-11-15T06:05:48;99527.09;;;12.82
29701;BMP280;57917;51.380;-0.176;2022-11-15T06:11:59;99515.72;;;12.72
29701;BMP280;57917;51.380;-0.176;2022-11-15T06:18:14;99522.56;;;12.73
29701;BMP280;57917;51.380;-0.176;2022-11-15T06:24:21;99507.88;;;12.76
29701;BMP280;57917;51.380;-0.176;2022-11-15T06:30:27;99508.94;;;12.83
29701;BMP280;57917;51.380;-0.176;2022-11-15T06:36:34;99508.84;;;12.71
29701;BMP280;57917;51.380;-0.176;2022-11-15T06:42:39;99524.47;;;12.56
29701;BMP280;57917;51.380;-0.176;2022-11-15T06:48:45;99509.66;;;12.38
29701;BMP280;57917;51.380;-0.176;2022-11-15T06:54:50;99505.31;;;12.33
29701;BMP280;57917;51.380;-0.176;2022-11-15T07:01:05;99501.25;;;12.27
29701;BMP280;57917;51.380;-0.176;2022-11-15T07:07:11;99496.88;;;12.14
29701;BMP280;57917;51.380;-0.176;2022-11-15T07:13:18;99487.03;;;12.15
29701;BMP280;57917;51.380;-0.176;2022-11-15T07:19:23;99477.25;;;12.07
29701;BMP280;57917;51.380;-0.176;2022-11-15T07:25:29;99466.31;;;12.00
29701;BMP280;57917;51.380;-0.176;2022-11-15T07:31:36;99475.69;;;11.97
29701;BMP280;57917;51.380;-0.176;2022-11-15T07:38:05;99470.38;;;11.97
29701;BMP280;57917;51.380;-0.176;2022-11-15T07:45:12;99460.53;;;12.06
29701;BMP280;57917;51.380;-0.176;2022-11-15T07:51:17;99466.16;;;12.05
29701;BMP280;57917;51.380;-0.176;2022-11-15T07:57:23;99447.91;;;12.03
29701;BMP280;57917;51.380;-0.176;2022-11-15T08:03:31;99431.22;;;12.11
29701;BMP280;57917;51.380;-0.176;2022-11-15T08:09:42;99426.50;;;12.17
29701;BMP280;57917;51.380;-0.176;2022-11-15T08:15:51;99425.75;;;12.16
29701;BMP280;57917;51.380;-0.176;2022-11-15T08:22:02;99422.78;;;12.18
29701;BMP280;57917;51.380;-0.176;2022-11-15T08:28:09;99420.28;;;12.13
29701;BMP280;57917;51.380;-0.176;2022-11-15T08:34:15;99405.28;;;12.17
29701;BMP280;57917;51.380;-0.176;2022-11-15T08:40:21;99407.47;;;12.23
29701;BMP280;57917;51.380;-0.176;2022-11-15T08:46:28;99400.09;;;12.37
29701;BMP280;57917;51.380;-0.176;2022-11-15T08:52:33;99394.09;;;12.57
29701;BMP280;57917;51.380;-0.176;2022-11-15T08:58:40;99376.16;;;12.54
29701;BMP280;57917;51.380;-0.176;2022-11-15T09:04:45;99372.88;;;12.57
29701;BMP280;57917;51.380;-0.176;2022-11-15T09:10:51;99373.94;;;12.65
29701;BMP280;57917;51.380;-0.176;2022-11-15T09:16:57;99363.31;;;12.65
29701;BMP280;57917;51.380;-0.176;2022-11-15T09:23:04;99349.19;;;12.82
29701;BMP280;57917;51.380;-0.176;2022-11-15T09:29:13;99329.47;;;12.82
29701;BMP280;57917;51.380;-0.176;2022-11-15T09:35:18;99318.16;;;12.73
29701;BMP280;57917;51.380;-0.176;2022-11-15T09:48:03;99294.69;;;12.75
29701;BMP280;57917;51.380;-0.176;2022-11-15T09:54:41;99288.88;;;12.82
29701;BMP280;57917;51.380;-0.176;2022-11-15T10:22:59;99240.00;;;13.04
29701;BMP280;57917;51.380;-0.176;2022-11-15T10:37:31;99209.94;;;12.91
29701;BMP280;57917;51.380;-0.176;2022-11-15T10:43:18;99188.22;;;13.10
29701;BMP280;57917;51.380;-0.176;2022-11-15T10:49:20;99176.00;;;13.09
29701;BMP280;57917;51.380;-0.176;2022-11-15T11:01:17;99161.38;;;13.03
29701;BMP280;57917;51.380;-0.176;2022-11-15T11:07:08;99155.19;;;12.99
29701;BMP280;57917;51.380;-0.176;2022-11-15T11:13:24;99144.78;;;12.94
29701;BMP280;57917;51.380;-0.176;2022-11-15T11:19:27;99125.09;;;12.95
29701;BMP280;57917;51.380;-0.176;2022-11-15T11:31:23;99107.66;;;13.06
29701;BMP280;57917;51.380;-0.176;2022-11-15T11:49:16;99071.63;;;13.08
29701;BMP280;57917;51.380;-0.176;2022-11-15T11:55:26;99055.16;;;13.15
29701;BMP280;57917;51.380;-0.176;2022-11-15T12:02:14;99035.06;;;13.14
29701;BMP280;57917;51.380;-0.176;2022-11-15T12:20:37;98987.66;;;13.16
29701;BMP280;57917;51.380;-0.176;2022-11-15T12:26:39;98989.88;;;13.26
29701;BMP280;57917;51.380;-0.176;2022-11-15T12:32:37;98961.75;;;13.25
29701;BMP280;57917;51.380;-0.176;2022-11-15T12:56:37;98959.41;;;13.47
29701;BMP280;57917;51.380;-0.176;2022-11-15T13:08:45;98938.84;;;13.72
29701;BMP280;57917;51.380;-0.176;2022-11-15T13:20:29;98933.50;;;14.11
29701;BMP280;57917;51.380;-0.176;2022-11-15T13:26:16;98918.41;;;14.31
29701;BMP280;57917;51.380;-0.176;2022-11-15T13:32:03;98907.63;;;14.55
29701;BMP280;57917;51.380;-0.176;2022-11-15T13:37:54;98918.94;;;14.52
29701;BMP280;57917;51.380;-0.176;2022-11-15T13:43:41;98915.44;;;14.48
29701;BMP280;57917;51.380;-0.176;2022-11-15T13:49:29;98926.91;;;14.52
29701;BMP280;57917;51.380;-0.176;2022-11-15T13:55:19;98916.22;;;14.49
29701;BMP280;57917;51.380;-0.176;2022-11-15T14:01:14;98920.50;;;14.53
29701;BMP280;57917;51.380;-0.176;2022-11-15T14:07:05;98914.78;;;14.39
29701;BMP280;57917;51.380;-0.176;2022-11-15T14:13:09;98906.03;;;14.23
29701;BMP280;57917;51.380;-0.176;2022-11-15T14:18:58;98915.00;;;14.30
29701;BMP280;57917;51.380;-0.176;2022-11-15T14:25:04;98922.16;;;14.14
29701;BMP280;57917;51.380;-0.176;2022-11-15T14:30:56;98920.28;;;14.15
29701;BMP280;57917;51.380;-0.176;2022-11-15T14:36:46;98921.44;;;14.02
29701;BMP280;57917;51.380;-0.176;2022-11-15T14:42:33;98912.41;;;13.91
29701;BMP280;57917;51.380;-0.176;2022-11-15T14:48:19;98927.03;;;13.97
29701;BMP280;57917;51.380;-0.176;2022-11-15T14:54:11;98928.56;;;13.98
29701;BMP280;57917;51.380;-0.176;2022-11-15T15:00:01;98939.19;;;13.82
29701;BMP280;57917;51.380;-0.176;2022-11-15T15:05:59;98942.25;;;13.84
29701;BMP280;57917;51.380;-0.176;2022-11-15T15:11:48;98946.59;;;13.89
29701;BMP280;57917;51.380;-0.176;2022-11-15T15:17:41;98928.81;;;13.93
29701;BMP280;57917;51.380;-0.176;2022-11-15T15:23:41;98943.13;;;13.88
29701;BMP280;57917;51.380;-0.176;2022-11-15T15:29:28;98939.94;;;13.83
29701;BMP280;57917;51.380;-0.176;2022-11-15T15:35:19;98945.06;;;13.76
29701;BMP280;57917;51.380;-0.176;2022-11-15T15:41:10;98961.16;;;13.55
29701;BMP280;57917;51.380;-0.176;2022-11-15T15:47:00;98974.38;;;13.40
29701;BMP280;57917;51.380;-0.176;2022-11-15T15:52:51;98980.69;;;13.47
29701;BMP280;57917;51.380;-0.176;2022-11-15T15:58:48;98978.38;;;13.34
29701;BMP280;57917;51.380;-0.176;2022-11-15T16:04:36;98982.56;;;13.23
29701;BMP280;57917;51.380;-0.176;2022-11-15T16:10:33;98982.66;;;13.02
29701;BMP280;57917;51.380;-0.176;2022-11-15T16:16:21;98992.94;;;12.79
29701;BMP280;57917;51.380;-0.176;2022-11-15T16:22:08;98981.16;;;13.01
29701;BMP280;57917;51.380;-0.176;2022-11-15T16:27:55;98975.38;;;13.11
29701;BMP280;57917;51.380;-0.176;2022-11-15T16:33:42;98963.97;;;13.11
29701;BMP280;57917;51.380;-0.176;2022-11-15T16:39:29;98974.50;;;12.95
29701;BMP280;57917;51.380;-0.176;2022-11-15T16:45:16;98990.97;;;12.89
29701;BMP280;57917;51.380;-0.176;2022-11-15T16:51:03;98992.41;;;12.86
29701;BMP280;57917;51.380;-0.176;2022-11-15T16:56:52;98998.03;;;12.85
29701;BMP280;57917;51.380;-0.176;2022-11-15T17:02:40;99002.25;;;12.86
29701;BMP280;57917;51.380;-0.176;2022-11-15T17:08:27;98996.25;;;12.76
29701;BMP280;57917;51.380;-0.176;2022-11-15T17:14:14;98998.81;;;12.85
29701;BMP280;57917;51.380;-0.176;2022-11-15T17:20:02;99004.03;;;12.94
29701;BMP280;57917;51.380;-0.176;2022-11-15T17:26:00;98991.63;;;12.73
29701;BMP280;57917;51.380;-0.176;2022-11-15T17:32:09;98991.50;;;12.82
29701;BMP280;57917;51.380;-0.176;2022-11-15T17:37:56;98985.84;;;12.71
29701;BMP280;57917;51.380;-0.176;2022-11-15T17:43:43;98984.53;;;12.65
29701;BMP280;57917;51.380;-0.176;2022-11-15T17:49:30;98978.94;;;12.46
29701;BMP280;57917;51.380;-0.176;2022-11-15T17:55:17;98985.03;;;12.47
29701;BMP280;57917;51.380;-0.176;2022-11-15T18:06:51;98984.94;;;12.02
29701;BMP280;57917;51.380;-0.176;2022-11-15T18:12:38;98983.91;;;11.74
29701;BMP280;57917;51.380;-0.176;2022-11-15T18:18:25;99012.38;;;11.86
29701;BMP280;57917;51.380;-0.176;2022-11-15T18:24:12;99005.91;;;11.95
29701;BMP280;57917;51.380;-0.176;2022-11-15T18:29:59;98998.66;;;12.04
29701;BMP280;57917;51.380;-0.176;2022-11-15T18:35:47;98993.03;;;11.85
29701;BMP280;57917;51.380;-0.176;2022-11-15T18:41:36;98990.75;;;11.75
29701;BMP280;57917;51.380;-0.176;2022-11-15T18:47:23;98985.91;;;11.77
29701;BMP280;57917;51.380;-0.176;2022-11-15T18:53:10;98984.47;;;11.80
29701;BMP280;57917;51.380;-0.176;2022-11-15T18:58:59;98984.47;;;11.59
29701;BMP280;57917;51.380;-0.176;2022-11-15T19:04:58;98999.78;;;11.54
29701;BMP280;57917;51.380;-0.176;2022-11-15T19:10:46;99014.16;;;11.44
29701;BMP280;57917;51.380;-0.176;2022-11-15T19:16:37;99010.16;;;11.29
29701;BMP280;57917;51.380;-0.176;2022-11-15T19:22:24;99001.50;;;11.20
29701;BMP280;57917;51.380;-0.176;2022-11-15T19:28:11;98996.25;;;11.12
29701;BMP280;57917;51.380;-0.176;2022-11-15T19:34:02;99012.78;;;11.00
29701;BMP280;57917;51.380;-0.176;2022-11-15T19:39:50;99009.25;;;10.88
29701;BMP280;57917;51.380;-0.176;2022-11-15T19:45:36;99007.03;;;10.90
29701;BMP280;57917;51.380;-0.176;2022-11-15T19:51:27;99019.19;;;10.91
29701;BMP280;57917;51.380;-0.176;2022-11-15T19:57:14;99001.47;;;10.83
29701;BMP280;57917;51.380;-0.176;2022-11-15T20:03:01;99004.13;;;10.74
29701;BMP280;57917;51.380;-0.176;2022-11-15T20:08:48;98998.19;;;10.77
29701;BMP280;57917;51.380;-0.176;2022-11-15T20:14:35;99004.91;;;10.75
29701;BMP280;57917;51.380;-0.176;2022-11-15T20:20:22;99010.94;;;10.84
29701;BMP280;57917;51.380;-0.176;2022-11-15T20:26:09;98999.91;;;10.82
29701;BMP280;57917;51.380;-0.176;2022-11-15T20:31:59;99021.41;;;10.89
29701;BMP280;57917;51.380;-0.176;2022-11-15T20:37:48;99048.19;;;10.79
29701;BMP280;57917;51.380;-0.176;2022-11-15T20:43:35;99052.38;;;10.80
29701;BMP280;57917;51.380;-0.176;2022-11-15T20:49:22;99047.09;;;10.63
29701;BMP280;57917;51.380;-0.176;2022-11-15T20:55:08;99046.94;;;10.59
29701;BMP280;57917;51.380;-0.176;2022-11-15T21:00:55;99053.34;;;10.58
29701;BMP280;57917;51.380;-0.176;2022-11-15T21:06:42;99067.50;;;10.54
29701;BMP280;57917;51.380;-0.176;2022-11-15T21:12:35;99062.38;;;10.40
29701;BMP280;57917;51.380;-0.176;2022-11-15T21:18:25;99055.06;;;10.46
29701;BMP280;57917;51.380;-0.176;2022-11-15T21:24:14;99051.31;;;10.38
29701;BMP280;57917;51.380;-0.176;2022-11-15T21:30:02;99042.28;;;10.14
29701;BMP280;57917;51.380;-0.176;2022-11-15T21:35:50;99064.19;;;10.06
29701;BMP280;57917;51.380;-0.176;2022-11-15T21:41:38;99075.25;;;10.08
29701;BMP280;57917;51.380;-0.176;2022-11-15T21:47:25;99068.72;;;10.14
29701;BMP280;57917;51.380;-0.176;2022-11-15T21:53:11;99057.94;;;10.02
29701;BMP280;57917;51.380;-0.176;2022-11-15T21:58:59;99055.16;;;10.07
29701;BMP280;57917;51.380;-0.176;2022-11-15T22:04:49;99049.59;;;10.00
29701;BMP280;57917;51.380;-0.176;2022-11-15T22:10:36;99050.34;;;10.09
29701;BMP280;57917;51.380;-0.176;2022-11-15T22:16:23;99053.16;;;10.04
29701;BMP280;57917;51.380;-0.176;2022-11-15T22:22:10;99051.28;;;10.04
29701;BMP280;57917;51.380;-0.176;2022-11-15T22:27:57;99061.56;;;10.14
29701;BMP280;57917;51.380;-0.176;2022-11-15T22:33:44;99047.56;;;10.05
29701;BMP280;57917;51.380;-0.176;2022-11-15T22:39:31;99062.59;;;9.96
29701;BMP280;57917;51.380;-0.176;2022-11-15T22:45:18;99059.38;;;9.99
29701;BMP280;57917;51.380;-0.176;2022-11-15T22:51:06;99056.41;;;10.09
29701;BMP280;57917;51.380;-0.176;2022-11-15T22:56:53;99069.78;;;10.04
29701;BMP280;57917;51.380;-0.176;2022-11-15T23:02:41;99067.16;;;10.04
29701;BMP280;57917;51.380;-0.176;2022-11-15T23:08:28;99063.97;;;9.85
29701;BMP280;57917;51.380;-0.176;2022-11-15T23:14:15;99049.13;;;10.06
29701;BMP280;57917;51.380;-0.176;2022-11-15T23:20:03;99049.59;;;10.08
29701;BMP280;57917;51.380;-0.176;2022-11-15T23:26:09;99029.84;;;10.06
29701;BMP280;57917;51.380;-0.176;2022-11-15T23:31:59;99033.41;;;10.10
29701;BMP280;57917;51.380;-0.176;2022-11-15T23:38:04;99041.81;;;10.12
29701;BMP280;57917;51.380;-0.176;2022-11-15T23:44:00;99043.19;;;10.18
29701;BMP280;57917;51.380;-0.176;2022-11-15T23:49:47;99038.38;;;10.20
29701;BMP280;57917;51.380;-0.176;2022-11-15T23:55:34;99045.69;;;10.06
